Aviation Digital Data Service (ADDS)

Output produced by METARs form (0428 UTC 19 February 2019)
found at http://www.aviationweather.gov/metar/data/
 
METAR text: SYCJ 190300Z 01006KT CAVOK 24/22 Q1016 NOSIG
Conditions at: SYCJ (GEORGETOWN/TIMEH, GY) observed 0300 UTC 19 February 2019
Temperature: 24.0°C (75°F)
Dewpoint: 22.0°C (72°F) [RH = 89%]
Pressure (altimeter): 30.00 inches Hg (1016.0 mb)
Winds: from the N (10 degrees) at 7 MPH (6 knots; 3.1 m/s)
Visibility: 6 or more miles (10+ km)
Ceiling: ceiling and visibility are OK
Clouds: unknown
Weather: no significant weather observed at this time

METAR text: SYCJ 190200Z 04004KT CAVOK 24/22 Q1016 NOSIG
Conditions at: SYCJ (GEORGETOWN/TIMEH, GY) observed 0200 UTC 19 February 2019
Temperature: 24.0°C (75°F)
Dewpoint: 22.0°C (72°F) [RH = 89%]
Pressure (altimeter): 30.00 inches Hg (1016.0 mb)
Winds: from the NE (40 degrees) at 5 MPH (4 knots; 2.1 m/s)
Visibility: 6 or more miles (10+ km)
Ceiling: ceiling and visibility are OK
Clouds: unknown
Weather: no significant weather observed at this time

METAR text: SYCJ 190100Z 05004KT CAVOK 24/22 Q1016 NOSIG
Conditions at: SYCJ (GEORGETOWN/TIMEH, GY) observed 0100 UTC 19 February 2019
Temperature: 24.0°C (75°F)
Dewpoint: 22.0°C (72°F) [RH = 89%]
Pressure (altimeter): 30.00 inches Hg (1016.0 mb)
Winds: from the NE (50 degrees) at 5 MPH (4 knots; 2.1 m/s)
Visibility: 6 or more miles (10+ km)
Ceiling: ceiling and visibility are OK
Clouds: unknown
Weather: no significant weather observed at this time

METAR text: SYCJ 190000Z 04006KT CAVOK 24/22 Q1015 NOSIG
Conditions at: SYCJ (GEORGETOWN/TIMEH, GY) observed 0000 UTC 19 February 2019
Temperature: 24.0°C (75°F)
Dewpoint: 22.0°C (72°F) [RH = 89%]
Pressure (altimeter): 29.97 inches Hg (1015.0 mb)
Winds: from the NE (40 degrees) at 7 MPH (6 knots; 3.1 m/s)
Visibility: 6 or more miles (10+ km)
Ceiling: ceiling and visibility are OK
Clouds: unknown
Weather: no significant weather observed at this time

METAR text: SYCJ 182300Z 04006KT 9999 FEW018 26/23 Q1014 NOSIG
Conditions at: SYCJ (GEORGETOWN/TIMEH, GY) observed 2300 UTC 18 February 2019
Temperature: 26.0°C (79°F)
Dewpoint: 23.0°C (73°F) [RH = 84%]
Pressure (altimeter): 29.94 inches Hg (1014.0 mb)
Winds: from the NE (40 degrees) at 7 MPH (6 knots; 3.1 m/s)
Visibility: 6 or more miles (10+ km)
Ceiling: at least 12,000 feet AGL
Clouds: few clouds at 1800 feet AGL
Weather: no significant weather observed at this time

METAR text: SYCJ 182200Z 05010KT 9999 SCT023 27/22 Q1014 NOSIG
Conditions at: SYCJ (GEORGETOWN/TIMEH, GY) observed 2200 UTC 18 February 2019
Temperature: 27.0°C (81°F)
Dewpoint: 22.0°C (72°F) [RH = 74%]
Pressure (altimeter): 29.94 inches Hg (1014.0 mb)
Winds: from the NE (50 degrees) at 12 MPH (10 knots; 5.1 m/s)
Visibility: 6 or more miles (10+ km)
Ceiling: at least 12,000 feet AGL
Clouds: scattered clouds at 2300 feet AGL
Weather: no significant weather observed at this time

METAR text: SYCJ 182100Z 06008KT 9999 SCT023 28/21 Q1013 NOSIG
Conditions at: SYCJ (GEORGETOWN/TIMEH, GY) observed 2100 UTC 18 February 2019
Temperature: 28.0°C (82°F)
Dewpoint: 21.0°C (70°F) [RH = 66%]
Pressure (altimeter): 29.91 inches Hg (1013.0 mb)
Winds: from the ENE (60 degrees) at 9 MPH (8 knots; 4.1 m/s)
Visibility: 6 or more miles (10+ km)
Ceiling: at least 12,000 feet AGL
Clouds: scattered clouds at 2300 feet AGL
Weather: no significant weather observed at this time

METAR text: SYCJ 182000Z 03012KT 9999 SCT023 29/22 Q1013 NOSIG
Conditions at: SYCJ (GEORGETOWN/TIMEH, GY) observed 2000 UTC 18 February 2019
Temperature: 29.0°C (84°F)
Dewpoint: 22.0°C (72°F) [RH = 66%]
Pressure (altimeter): 29.91 inches Hg (1013.0 mb)
Winds: from the NNE (30 degrees) at 14 MPH (12 knots; 6.2 m/s)
Visibility: 6 or more miles (10+ km)
Ceiling: at least 12,000 feet AGL
Clouds: scattered clouds at 2300 feet AGL
Weather: no significant weather observed at this time

METAR text: SYCJ 181900Z 05006KT 9999 SCT023 29/20 Q1013 NOSIG
Conditions at: SYCJ (GEORGETOWN/TIMEH, GY) observed 1900 UTC 18 February 2019
Temperature: 29.0°C (84°F)
Dewpoint: 20.0°C (68°F) [RH = 58%]
Pressure (altimeter): 29.91 inches Hg (1013.0 mb)
Winds: from the NE (50 degrees) at 7 MPH (6 knots; 3.1 m/s)
Visibility: 6 or more miles (10+ km)
Ceiling: at least 12,000 feet AGL
Clouds: scattered clouds at 2300 feet AGL
Weather: no significant weather observed at this time

METAR text: SYCJ 181800Z 05018KT 010V070 9999 BKN023 30/20 Q1014 NOSIG
Conditions at: SYCJ (GEORGETOWN/TIMEH, GY) observed 1800 UTC 18 February 2019
Temperature: 30.0°C (86°F)
Dewpoint: 20.0°C (68°F) [RH = 55%]
Pressure (altimeter): 29.94 inches Hg (1014.0 mb)
Winds: from the NE (50 degrees) at 21 MPH (18 knots; 9.3 m/s)
Visibility: 6 or more miles (10+ km)
Ceiling: 2300 feet AGL
Clouds: broken clouds at 2300 feet AGL
Weather: no significant weather observed at this time

METAR text: SYCJ 181700Z 04012KT 9999 BKN023 31/21 Q1015 NOSIG
Conditions at: SYCJ (GEORGETOWN/TIMEH, GY) observed 1700 UTC 18 February 2019
Temperature: 31.0°C (88°F)
Dewpoint: 21.0°C (70°F) [RH = 55%]
Pressure (altimeter): 29.97 inches Hg (1015.0 mb)
Winds: from the NE (40 degrees) at 14 MPH (12 knots; 6.2 m/s)
Visibility: 6 or more miles (10+ km)
Ceiling: 2300 feet AGL
Clouds: broken clouds at 2300 feet AGL
Weather: no significant weather observed at this time

METAR text: SYCJ 181600Z 03016KT 9999 BKN023 31/22 Q1016 NOSIG
Conditions at: SYCJ (GEORGETOWN/TIMEH, GY) observed 1600 UTC 18 February 2019
Temperature: 31.0°C (88°F)
Dewpoint: 22.0°C (72°F) [RH = 59%]
Pressure (altimeter): 30.00 inches Hg (1016.0 mb)
Winds: from the NNE (30 degrees) at 18 MPH (16 knots; 8.2 m/s)
Visibility: 6 or more miles (10+ km)
Ceiling: 2300 feet AGL
Clouds: broken clouds at 2300 feet AGL
Weather: no significant weather observed at this time

METAR text: SYCJ 181500Z 06008KT 9999 SCT022 30/21 Q1017 NOSIG
Conditions at: SYCJ (GEORGETOWN/TIMEH, GY) observed 1500 UTC 18 February 2019
Temperature: 30.0°C (86°F)
Dewpoint: 21.0°C (70°F) [RH = 59%]
Pressure (altimeter): 30.03 inches Hg (1017.0 mb)
Winds: from the ENE (60 degrees) at 9 MPH (8 knots; 4.1 m/s)
Visibility: 6 or more miles (10+ km)
Ceiling: at least 12,000 feet AGL
Clouds: scattered clouds at 2200 feet AGL
Weather: no significant weather observed at this time

METAR text: SYCJ 181400Z 06012KT 9999 SCT022 29/21 Q1017 NOSIG
Conditions at: SYCJ (GEORGETOWN/TIMEH, GY) observed 1400 UTC 18 February 2019
Temperature: 29.0°C (84°F)
Dewpoint: 21.0°C (70°F) [RH = 62%]
Pressure (altimeter): 30.03 inches Hg (1017.0 mb)
Winds: from the ENE (60 degrees) at 14 MPH (12 knots; 6.2 m/s)
Visibility: 6 or more miles (10+ km)
Ceiling: at least 12,000 feet AGL
Clouds: scattered clouds at 2200 feet AGL
Weather: no significant weather observed at this time

METAR text: SYCJ 181300Z 07012KT 020V100 9999 SCT021 27/23 Q1016 NOSIG
Conditions at: SYCJ (GEORGETOWN/TIMEH, GY) observed 1300 UTC 18 February 2019
Temperature: 27.0°C (81°F)
Dewpoint: 23.0°C (73°F) [RH = 79%]
Pressure (altimeter): 30.00 inches Hg (1016.0 mb)
Winds: from the ENE (70 degrees) at 14 MPH (12 knots; 6.2 m/s)
Visibility: 6 or more miles (10+ km)
Ceiling: at least 12,000 feet AGL
Clouds: scattered clouds at 2100 feet AGL
Weather: no significant weather observed at this time

METAR text: SYCJ 181200Z 06004KT 9999 FEW020 25/22 Q1016 NOSIG
Conditions at: SYCJ (GEORGETOWN/TIMEH, GY) observed 1200 UTC 18 February 2019
Temperature: 25.0°C (77°F)
Dewpoint: 22.0°C (72°F) [RH = 83%]
Pressure (altimeter): 30.00 inches Hg (1016.0 mb)
Winds: from the ENE (60 degrees) at 5 MPH (4 knots; 2.1 m/s)
Visibility: 6 or more miles (10+ km)
Ceiling: at least 12,000 feet AGL
Clouds: few clouds at 2000 feet AGL
Weather: no significant weather observed at this time

METAR text: SYCJ 181100Z 03004KT CAVOK 22/22 Q1015 NOSIG
Conditions at: SYCJ (GEORGETOWN/TIMEH, GY) observed 1100 UTC 18 February 2019
Temperature: 22.0°C (72°F)
Dewpoint: 22.0°C (72°F) [RH = 100%]
Pressure (altimeter): 29.97 inches Hg (1015.0 mb)
Winds: from the NNE (30 degrees) at 5 MPH (4 knots; 2.1 m/s)
Visibility: 6 or more miles (10+ km)
Ceiling: ceiling and visibility are OK
Clouds: unknown
Weather: no significant weather observed at this time

METAR text: SYCJ 181000Z 05004KT 9999 FEW016 21/21 Q1015 NOSIG
Conditions at: SYCJ (GEORGETOWN/TIMEH, GY) observed 1000 UTC 18 February 2019
Temperature: 21.0°C (70°F)
Dewpoint: 21.0°C (70°F) [RH = 100%]
Pressure (altimeter): 29.97 inches Hg (1015.0 mb)
Winds: from the NE (50 degrees) at 5 MPH (4 knots; 2.1 m/s)
Visibility: 6 or more miles (10+ km)
Ceiling: at least 12,000 feet AGL
Clouds: few clouds at 1600 feet AGL
Weather: no significant weather observed at this time

METAR text: SYCJ 180900Z VRB02KT CAVOK 21/20 Q1014 NOSIG
Conditions at: SYCJ (GEORGETOWN/TIMEH, GY) observed 0900 UTC 18 February 2019
Temperature: 21.0°C (70°F)
Dewpoint: 20.0°C (68°F) [RH = 94%]
Pressure (altimeter): 29.94 inches Hg (1014.0 mb)
Winds: variable direction winds at 2 MPH (2 knots; 1.0 m/s)
Visibility: 6 or more miles (10+ km)
Ceiling: ceiling and visibility are OK
Clouds: unknown
Weather: no significant weather observed at this time

METAR text: SYCJ 180800Z 03004KT 9999 CAVOK 21/21 Q1014 NOSIG
Conditions at: SYCJ (GEORGETOWN/TIMEH, GY) observed 0800 UTC 18 February 2019
Temperature: 21.0°C (70°F)
Dewpoint: 21.0°C (70°F) [RH = 100%]
Pressure (altimeter): 29.94 inches Hg (1014.0 mb)
Winds: from the NNE (30 degrees) at 5 MPH (4 knots; 2.1 m/s)
Visibility: 6 or more miles (10+ km)
Ceiling: ceiling and visibility are OK
Clouds: unknown
Weather: no significant weather observed at this time

METAR text: SYCJ 180700Z VRB02KT CAVOK 21/21 Q1014 NOSIG
Conditions at: SYCJ (GEORGETOWN/TIMEH, GY) observed 0700 UTC 18 February 2019
Temperature: 21.0°C (70°F)
Dewpoint: 21.0°C (70°F) [RH = 100%]
Pressure (altimeter): 29.94 inches Hg (1014.0 mb)
Winds: variable direction winds at 2 MPH (2 knots; 1.0 m/s)
Visibility: 6 or more miles (10+ km)
Ceiling: ceiling and visibility are OK
Clouds: unknown
Weather: no significant weather observed at this time

METAR text: SYCJ 180600Z VRB02KT CAVOK 22/21 Q1014 NOSIG
Conditions at: SYCJ (GEORGETOWN/TIMEH, GY) observed 0600 UTC 18 February 2019
Temperature: 22.0°C (72°F)
Dewpoint: 21.0°C (70°F) [RH = 94%]
Pressure (altimeter): 29.94 inches Hg (1014.0 mb)
Winds: variable direction winds at 2 MPH (2 knots; 1.0 m/s)
Visibility: 6 or more miles (10+ km)
Ceiling: ceiling and visibility are OK
Clouds: unknown
Weather: no significant weather observed at this time

METAR text: SYCJ 180500Z 01004KT CAVOK 23/21 Q1015 NOSIG
Conditions at: SYCJ (GEORGETOWN/TIMEH, GY) observed 0500 UTC 18 February 2019
Temperature: 23.0°C (73°F)
Dewpoint: 21.0°C (70°F) [RH = 89%]
Pressure (altimeter): 29.97 inches Hg (1015.0 mb)
Winds: from the N (10 degrees) at 5 MPH (4 knots; 2.1 m/s)
Visibility: 6 or more miles (10+ km)
Ceiling: ceiling and visibility are OK
Clouds: unknown
Weather: no significant weather observed at this time

METAR text: SYCJ 180400Z 02006KT CAVOK 24/22 Q1015 NOSIG
Conditions at: SYCJ (GEORGETOWN/TIMEH, GY) observed 0400 UTC 18 February 2019
Temperature: 24.0°C (75°F)
Dewpoint: 22.0°C (72°F) [RH = 89%]
Pressure (altimeter): 29.97 inches Hg (1015.0 mb)
Winds: from the NNE (20 degrees) at 7 MPH (6 knots; 3.1 m/s)
Visibility: 6 or more miles (10+ km)
Ceiling: ceiling and visibility are OK
Clouds: unknown
Weather: no significant weather observed at this time

METAR text: SYCJ 180300Z 03004KT CAVOK 24/22 Q1015 NOSIG
Conditions at: SYCJ (GEORGETOWN/TIMEH, GY) observed 0300 UTC 18 February 2019
Temperature: 24.0°C (75°F)
Dewpoint: 22.0°C (72°F) [RH = 89%]
Pressure (altimeter): 29.97 inches Hg (1015.0 mb)
Winds: from the NNE (30 degrees) at 5 MPH (4 knots; 2.1 m/s)
Visibility: 6 or more miles (10+ km)
Ceiling: ceiling and visibility are OK
Clouds: unknown
Weather: no significant weather observed at this time

METAR text: SYCJ 180200Z 04006KT CAVOK 24/22 Q1015 NOSIG
Conditions at: SYCJ (GEORGETOWN/TIMEH, GY) observed 0200 UTC 18 February 2019
Temperature: 24.0°C (75°F)
Dewpoint: 22.0°C (72°F) [RH = 89%]
Pressure (altimeter): 29.97 inches Hg (1015.0 mb)
Winds: from the NE (40 degrees) at 7 MPH (6 knots; 3.1 m/s)
Visibility: 6 or more miles (10+ km)
Ceiling: ceiling and visibility are OK
Clouds: unknown
Weather: no significant weather observed at this time

METAR text: SYCJ 180100Z 03004KT CAVOK 24/22 Q1015 NOSIG
Conditions at: SYCJ (GEORGETOWN/TIMEH, GY) observed 0100 UTC 18 February 2019
Temperature: 24.0°C (75°F)
Dewpoint: 22.0°C (72°F) [RH = 89%]
Pressure (altimeter): 29.97 inches Hg (1015.0 mb)
Winds: from the NNE (30 degrees) at 5 MPH (4 knots; 2.1 m/s)
Visibility: 6 or more miles (10+ km)
Ceiling: ceiling and visibility are OK
Clouds: unknown
Weather: no significant weather observed at this time

METAR text: SYCJ 180000Z 04006KT CAVOK 24/22 Q1015 NOSIG
Conditions at: SYCJ (GEORGETOWN/TIMEH, GY) observed 0000 UTC 18 February 2019
Temperature: 24.0°C (75°F)
Dewpoint: 22.0°C (72°F) [RH = 89%]
Pressure (altimeter): 29.97 inches Hg (1015.0 mb)
Winds: from the NE (40 degrees) at 7 MPH (6 knots; 3.1 m/s)
Visibility: 6 or more miles (10+ km)
Ceiling: ceiling and visibility are OK
Clouds: unknown
Weather: no significant weather observed at this time

METAR text: SYCJ 172330Z 04008KT 9999 FEW018 26/22 Q1014 NOSIG
Conditions at: SYCJ (GEORGETOWN/TIMEH, GY) observed 2330 UTC 17 February 2019
Temperature: 26.0°C (79°F)
Dewpoint: 22.0°C (72°F) [RH = 79%]
Pressure (altimeter): 29.94 inches Hg (1014.0 mb)
Winds: from the NE (40 degrees) at 9 MPH (8 knots; 4.1 m/s)
Visibility: 6 or more miles (10+ km)
Ceiling: at least 12,000 feet AGL
Clouds: few clouds at 1800 feet AGL
Weather: no significant weather observed at this time

METAR text: SYCJ 172200Z 05008KT 9999 FEW018 26/21 Q1014 NOSIG
Conditions at: SYCJ (GEORGETOWN/TIMEH, GY) observed 2200 UTC 17 February 2019
Temperature: 26.0°C (79°F)
Dewpoint: 21.0°C (70°F) [RH = 74%]
Pressure (altimeter): 29.94 inches Hg (1014.0 mb)
Winds: from the NE (50 degrees) at 9 MPH (8 knots; 4.1 m/s)
Visibility: 6 or more miles (10+ km)
Ceiling: at least 12,000 feet AGL
Clouds: few clouds at 1800 feet AGL
Weather: no significant weather observed at this time

METAR text: SYCJ 172100Z 05012KT 9999 SCT024 28/21 Q1013 NOSIG
Conditions at: SYCJ (GEORGETOWN/TIMEH, GY) observed 2100 UTC 17 February 2019
Temperature: 28.0°C (82°F)
Dewpoint: 21.0°C (70°F) [RH = 66%]
Pressure (altimeter): 29.91 inches Hg (1013.0 mb)
Winds: from the NE (50 degrees) at 14 MPH (12 knots; 6.2 m/s)
Visibility: 6 or more miles (10+ km)
Ceiling: at least 12,000 feet AGL
Clouds: scattered clouds at 2400 feet AGL
Weather: no significant weather observed at this time

METAR text: SYCJ 172000Z 07014KT 9999 SCT024 29/21 Q1013 NOSIG
Conditions at: SYCJ (GEORGETOWN/TIMEH, GY) observed 2000 UTC 17 February 2019
Temperature: 29.0°C (84°F)
Dewpoint: 21.0°C (70°F) [RH = 62%]
Pressure (altimeter): 29.91 inches Hg (1013.0 mb)
Winds: from the ENE (70 degrees) at 16 MPH (14 knots; 7.2 m/s)
Visibility: 6 or more miles (10+ km)
Ceiling: at least 12,000 feet AGL
Clouds: scattered clouds at 2400 feet AGL
Weather: no significant weather observed at this time

METAR text: SYCJ 171900Z 04016KT 010V070 9999 SCT024 31/20 Q1013 NOSIG
Conditions at: SYCJ (GEORGETOWN/TIMEH, GY) observed 1900 UTC 17 February 2019
Temperature: 31.0°C (88°F)
Dewpoint: 20.0°C (68°F) [RH = 52%]
Pressure (altimeter): 29.91 inches Hg (1013.0 mb)
Winds: from the NE (40 degrees) at 18 MPH (16 knots; 8.2 m/s)
Visibility: 6 or more miles (10+ km)
Ceiling: at least 12,000 feet AGL
Clouds: scattered clouds at 2400 feet AGL
Weather: no significant weather observed at this time

METAR text: SYCJ 171800Z 06012KT 9999 SCT023 30/20 Q1014 NOSIG
Conditions at: SYCJ (GEORGETOWN/TIMEH, GY) observed 1800 UTC 17 February 2019
Temperature: 30.0°C (86°F)
Dewpoint: 20.0°C (68°F) [RH = 55%]
Pressure (altimeter): 29.94 inches Hg (1014.0 mb)
Winds: from the ENE (60 degrees) at 14 MPH (12 knots; 6.2 m/s)
Visibility: 6 or more miles (10+ km)
Ceiling: at least 12,000 feet AGL
Clouds: scattered clouds at 2300 feet AGL
Weather: no significant weather observed at this time

METAR text: SYCJ 171700Z 06014KT 040V110 9999 SCT022 31/21 Q1015 NOSIG
Conditions at: SYCJ (GEORGETOWN/TIMEH, GY) observed 1700 UTC 17 February 2019
Temperature: 31.0°C (88°F)
Dewpoint: 21.0°C (70°F) [RH = 55%]
Pressure (altimeter): 29.97 inches Hg (1015.0 mb)
Winds: from the ENE (60 degrees) at 16 MPH (14 knots; 7.2 m/s)
Visibility: 6 or more miles (10+ km)
Ceiling: at least 12,000 feet AGL
Clouds: scattered clouds at 2200 feet AGL
Weather: no significant weather observed at this time

Forecast for: SYCJ (GEORGETOWN/TIMEH, GY)
Text: TAF SYCJ 182209Z 1900/1924 06004KT CAVOK
Forecast period: 0000 to 1100 UTC 19 February 2019
Forecast type: FROM: standard forecast or significant change
Winds: from the ENE (60 degrees) at 5 MPH (4 knots; 2.1 m/s)
Visibility: 6 or more miles 10+ km)
Ceiling: unknown
Clouds: missing
Weather: NSW  (no significant weather)
Text: BECMG 1911/1913 06014KT 9999 BKN022
Forecast period: 1100 UTC 19 February 2019 to 0000 UTC 20 February 2019
Forecast type: BECOMING: Conditions expected to become as follows by 1300 UTC 19 February 2019
Winds: from the ENE (60 degrees) at 16 MPH (14 knots; 7.2 m/s)
Visibility: 6 or more miles 10+ km)
Ceiling: 2200 feet AGL
Clouds: broken clouds at 2200 feet AGL
Weather: NSW  (no significant weather)